createdAt,value
2023-03-06T00:00:42.262Z,2.01
2023-03-06T00:05:45.277Z,2.00
2023-03-06T00:10:48.240Z,1.97
2023-03-06T00:15:52.665Z,1.94
2023-03-06T00:20:55.618Z,1.99
2023-03-06T00:25:58.526Z,1.93
2023-03-06T00:31:02.877Z,1.87
2023-03-06T00:36:06.324Z,1.98
2023-03-06T00:41:10.618Z,1.98
2023-03-06T00:46:15.028Z,1.95
2023-03-06T00:51:19.737Z,1.86
2023-03-06T00:56:22.764Z,2.02
2023-03-06T01:01:27.046Z,2.06
2023-03-06T01:06:30.031Z,2.02
2023-03-06T01:11:32.951Z,1.94
2023-03-06T01:16:37.338Z,1.75
2023-03-06T01:21:40.411Z,1.80
2023-03-06T01:26:43.544Z,1.84
2023-03-06T01:31:47.916Z,1.82
2023-03-06T01:36:50.875Z,1.71
2023-03-06T01:41:53.778Z,1.72
2023-03-06T01:46:58.020Z,1.81
2023-03-06T01:52:05.113Z,1.71
2023-03-06T01:57:12.492Z,1.71
2023-03-06T02:02:17.521Z,1.71
2023-03-06T02:07:21.926Z,1.78
2023-03-06T02:12:25.137Z,1.58
2023-03-06T02:17:30.386Z,1.47
2023-03-06T02:22:41.423Z,1.27
2023-03-06T02:27:45.786Z,1.46
2023-03-06T02:32:48.654Z,1.29
2023-03-06T02:37:52.482Z,1.40
2023-03-06T02:42:58.569Z,1.23
2023-03-06T02:48:01.618Z,1.20
2023-03-06T02:53:05.191Z,1.29
2023-03-06T02:58:09.595Z,1.33
2023-03-06T03:03:12.563Z,1.34
2023-03-06T03:08:15.966Z,1.36
2023-03-06T03:13:20.523Z,1.30
2023-03-06T03:18:24.831Z,1.18
2023-03-06T03:23:28.592Z,1.15
2023-03-06T03:28:35.344Z,1.10
2023-03-06T03:33:38.442Z,1.08
2023-03-06T03:38:41.676Z,0.90
2023-03-06T03:43:46.076Z,0.97
2023-03-06T03:48:49.164Z,0.88
2023-03-06T03:53:52.967Z,0.95
2023-03-06T03:59:01.476Z,1.11
2023-03-06T04:04:09.873Z,0.92
2023-03-06T04:09:13.967Z,1.04
2023-03-06T04:14:19.336Z,1.05
2023-03-06T04:19:22.715Z,0.90
2023-03-06T04:24:26.381Z,0.88
2023-03-06T04:29:30.735Z,0.79
2023-03-06T04:34:33.634Z,0.81
2023-03-06T04:39:37.290Z,0.79
2023-03-06T04:44:41.774Z,0.65
2023-03-06T04:49:44.806Z,0.67
2023-03-06T04:54:47.729Z,0.51
2023-03-06T04:59:52.280Z,0.48
2023-03-06T05:04:55.158Z,0.48
2023-03-06T05:09:58.119Z,0.47
2023-03-06T05:15:02.701Z,0.41
2023-03-06T05:20:07.388Z,0.44
2023-03-06T05:25:11.686Z,0.29
2023-03-06T05:30:16.656Z,0.34
2023-03-06T05:35:21.297Z,0.32
2023-03-06T05:40:24.222Z,0.40
2023-03-06T05:45:28.563Z,0.54
2023-03-06T05:50:31.533Z,0.47
2023-03-06T05:55:34.438Z,0.49
2023-03-06T06:00:38.780Z,0.46
2023-03-06T06:05:41.793Z,0.55
2023-03-06T06:10:44.767Z,0.76
2023-03-06T06:15:49.027Z,0.85
2023-03-06T06:20:51.989Z,0.88
2023-03-06T06:25:55.411Z,0.75
2023-03-06T06:30:59.690Z,0.89
2023-03-06T06:36:02.696Z,0.75
2023-03-06T06:41:35.627Z,0.61
2023-03-06T06:47:19.271Z,0.99
2023-03-06T06:51:54.482Z,0.89
2023-03-06T06:56:57.402Z,1.04
2023-03-06T07:02:01.737Z,1.25
2023-03-06T07:07:04.734Z,1.24
2023-03-06T07:12:08.636Z,1.57
2023-03-06T07:17:12.901Z,1.82
2023-03-06T07:22:15.785Z,1.76
2023-03-06T07:27:18.698Z,1.95
2023-03-06T07:32:23.026Z,1.90
2023-03-06T07:37:25.975Z,2.04
2023-03-06T07:42:29.291Z,2.10
2023-03-06T07:47:38.374Z,2.39
2023-03-06T07:52:41.334Z,2.33
2023-03-06T07:57:45.092Z,2.15
2023-03-06T08:02:50.150Z,2.48
2023-03-06T08:07:53.173Z,2.52
2023-03-06T08:12:56.141Z,2.51
2023-03-06T08:18:00.395Z,2.72
2023-03-06T08:23:03.253Z,2.95
2023-03-06T08:28:08.817Z,2.84
2023-03-06T08:33:13.077Z,2.54
2023-03-06T08:38:16.410Z,2.61
2023-03-06T08:43:19.282Z,2.68
2023-03-06T08:48:23.560Z,2.69
2023-03-06T08:53:41.759Z,2.98
2023-03-06T08:58:45.438Z,3.11
2023-03-06T09:03:50.104Z,2.85
2023-03-06T09:08:53.572Z,3.33
2023-03-06T09:13:56.897Z,3.78
2023-03-06T09:19:01.207Z,3.44
2023-03-06T09:24:06.495Z,3.79
2023-03-06T09:29:09.759Z,4.19
2023-03-06T09:34:14.207Z,4.60
2023-03-06T09:39:17.135Z,4.69
2023-03-06T09:44:22.440Z,5.09
2023-03-06T09:49:45.779Z,5.39
2023-03-06T09:54:54.725Z,5.29
2023-03-06T10:00:03.501Z,5.32
2023-03-06T10:05:36.062Z,6.14
2023-03-06T10:10:45.674Z,6.32
2023-03-06T10:15:50.582Z,5.47
2023-03-06T10:21:10.326Z,5.12
2023-03-06T10:26:25.736Z,4.65
2023-03-06T10:31:29.813Z,4.81
2023-03-06T10:36:34.140Z,4.81
2023-03-06T10:41:38.324Z,5.45
2023-03-06T10:46:43.204Z,5.34
2023-03-06T10:51:58.097Z,5.27
2023-03-06T10:57:19.887Z,5.41
2023-03-06T11:02:28.565Z,5.13
2023-03-06T11:07:34.131Z,5.33
2023-03-06T11:12:38.972Z,4.92
2023-03-06T11:17:51.700Z,4.79
2023-03-06T11:23:00.243Z,5.35
2023-03-06T11:28:08.393Z,5.63
2023-03-06T11:33:26.639Z,5.46
2023-03-06T11:38:40.324Z,4.73
2023-03-06T11:43:53.880Z,4.60
2023-03-06T11:49:03.421Z,4.27
2023-03-06T11:54:13.626Z,4.70
2023-03-06T11:59:27.114Z,4.91
2023-03-06T12:04:49.498Z,5.06
2023-03-06T12:10:00.104Z,5.68
2023-03-06T12:15:16.992Z,5.23
2023-03-06T12:20:41.104Z,5.80
2023-03-06T12:25:56.107Z,5.72
2023-03-06T12:31:30.222Z,5.22
2023-03-06T12:36:43.027Z,4.39
2023-03-06T12:42:04.992Z,4.62
2023-03-06T12:47:16.344Z,5.10
2023-03-06T12:52:30.396Z,4.75
2023-03-06T12:57:34.963Z,4.76
2023-03-06T13:03:06.349Z,4.09
2023-03-06T13:08:47.763Z,4.41
2023-03-06T13:13:52.235Z,4.24
2023-03-06T13:19:02.147Z,4.60
2023-03-06T13:24:05.875Z,4.86
2023-03-06T13:29:42.011Z,4.96
2023-03-06T13:34:48.508Z,5.24
2023-03-06T13:40:26.118Z,4.84
2023-03-06T13:45:34.503Z,4.97
2023-03-06T13:50:42.099Z,3.99
2023-03-06T13:55:53.039Z,4.56
2023-03-06T14:01:22.312Z,4.92
2023-03-06T14:06:53.056Z,5.33
2023-03-06T14:12:00.497Z,5.02
2023-03-06T14:17:05.841Z,4.97
2023-03-06T14:22:18.668Z,5.13
2023-03-06T14:27:21.834Z,5.20
2023-03-06T14:32:24.810Z,5.25
2023-03-06T14:37:29.344Z,5.43
2023-03-06T14:42:32.299Z,5.37
2023-03-06T14:47:37.488Z,5.55
2023-03-06T14:52:41.823Z,5.42
2023-03-06T14:57:45.207Z,5.39
2023-03-06T15:02:50.528Z,5.22
2023-03-06T15:07:58.234Z,5.24
2023-03-06T15:13:10.290Z,4.94
2023-03-06T15:18:28.773Z,5.15
2023-03-06T15:23:38.770Z,5.22
2023-03-06T15:28:41.799Z,5.14
2023-03-06T15:33:45.168Z,5.08
2023-03-06T15:38:49.497Z,5.10
2023-03-06T15:43:52.409Z,5.02
2023-03-06T15:48:56.642Z,4.74
2023-03-06T15:54:11.942Z,4.64
2023-03-06T15:59:21.634Z,4.73
2023-03-06T16:04:24.812Z,4.50
2023-03-06T16:09:29.061Z,2.91
2023-03-06T16:14:32.071Z,2.44
2023-03-06T16:19:35.042Z,2.65
2023-03-06T16:24:39.325Z,2.58
2023-03-06T16:29:42.189Z,2.40
2023-03-06T16:34:45.177Z,2.47
2023-03-06T16:39:49.433Z,2.60
2023-03-06T16:44:52.365Z,2.52
2023-03-06T16:49:57.989Z,2.56
2023-03-06T16:55:02.403Z,2.56
2023-03-06T17:00:08.101Z,2.44
2023-03-06T17:05:12.878Z,2.49
2023-03-06T17:10:19.659Z,2.62
2023-03-06T17:15:22.714Z,2.67
2023-03-06T17:20:25.698Z,2.66
2023-03-06T17:25:30.074Z,2.70
2023-03-06T17:30:32.967Z,2.75
2023-03-06T17:35:36.477Z,2.64
2023-03-06T17:40:40.844Z,2.48
2023-03-06T17:45:43.829Z,2.33
2023-03-06T17:50:54.276Z,2.53
2023-03-06T17:55:59.079Z,2.53
2023-03-06T18:01:09.913Z,2.53
2023-03-06T18:06:13.443Z,2.40
2023-03-06T18:11:18.285Z,2.41
2023-03-06T18:16:23.291Z,2.27
2023-03-06T18:21:26.622Z,2.40
2023-03-06T18:26:31.440Z,2.29
2023-03-06T18:31:36.300Z,2.34
2023-03-06T18:36:40.457Z,2.34
2023-03-06T18:41:45.034Z,2.18
2023-03-06T18:46:47.964Z,2.23
2023-03-06T18:51:51.044Z,2.26
2023-03-06T18:56:55.485Z,2.24
2023-03-06T19:01:59.260Z,2.19
2023-03-06T19:07:02.169Z,2.21
2023-03-06T19:12:07.385Z,2.34
2023-03-06T19:17:10.487Z,2.41
2023-03-06T19:22:13.426Z,2.21
2023-03-06T19:27:17.769Z,2.28
2023-03-06T19:32:20.819Z,2.34
2023-03-06T19:37:24.294Z,2.32
2023-03-06T19:42:28.683Z,2.28
2023-03-06T19:47:31.611Z,2.39
2023-03-06T19:52:38.270Z,2.21
2023-03-06T19:57:43.388Z,2.29
2023-03-06T20:02:46.298Z,2.25
2023-03-06T20:07:49.886Z,2.31
2023-03-06T20:12:54.111Z,2.28
2023-03-06T20:17:56.963Z,2.15
2023-03-06T20:23:02.626Z,2.20
2023-03-06T20:28:07.038Z,2.20
2023-03-06T20:33:09.981Z,2.11
2023-03-06T20:38:12.865Z,2.15
2023-03-06T20:43:17.124Z,2.12
2023-03-06T20:48:20.077Z,2.13
2023-03-06T20:53:22.940Z,2.06
2023-03-06T20:58:30.055Z,2.05
2023-03-06T21:03:32.989Z,2.29
2023-03-06T21:08:35.890Z,2.16
2023-03-06T21:13:40.372Z,2.34
2023-03-06T21:18:43.717Z,2.06
2023-03-06T21:23:47.493Z,2.09
2023-03-06T21:28:52.241Z,2.18
2023-03-06T21:33:55.423Z,1.88
2023-03-06T21:38:58.448Z,1.50
2023-03-06T21:44:04.513Z,1.43
2023-03-06T21:49:07.406Z,1.42
2023-03-06T21:54:10.325Z,1.22
2023-03-06T21:59:14.838Z,1.22
2023-03-06T22:04:17.790Z,1.35
2023-03-06T22:09:20.742Z,1.23
2023-03-06T22:14:25.026Z,1.20
2023-03-06T22:19:28.337Z,1.12
2023-03-06T22:24:31.705Z,1.15
2023-03-06T22:29:36.278Z,1.27
2023-03-06T22:34:39.319Z,1.33
2023-03-06T22:39:42.164Z,1.25
2023-03-06T22:44:46.527Z,1.25
2023-03-06T22:49:49.421Z,1.27
2023-03-06T22:54:52.306Z,0.88
2023-03-06T22:59:56.771Z,0.67
2023-03-06T23:04:59.698Z,0.67
2023-03-06T23:10:02.603Z,0.83
2023-03-06T23:15:25.568Z,0.89
2023-03-06T23:20:46.852Z,1.04
2023-03-06T23:26:09.675Z,1.06
2023-03-06T23:31:15.486Z,1.11
2023-03-06T23:36:19.586Z,1.23
2023-03-06T23:41:23.658Z,1.14
2023-03-06T23:46:27.970Z,1.19
2023-03-06T23:51:30.987Z,1.22
2023-03-06T23:56:33.975Z,1.27
